Terminal Aerodrome Forecast
Issued by NWS

Home | Current Version | Previous Version | Text Only | Print | Product List | Glossary On
Versions: 1 2 3 4 5 6 7 8 9 10 11 12 13 14 15 16 17 18 19 20 21 22 23 24 25 26 27 28 29 30 31 32 33 34 35 36 37 38 39 40 41 42 43 44 45 46 47 48 49 50
000
FTAK31 PANC 040527
TAFACD
TAF
PACD 040527Z 0406/0506 26008KT P6SM FEW010 SCT025 OVC035
      TEMPO 0406/0409 BKN025
     FM040900 18007KT P6SM SCT010 BKN025 OVC035
     FM041400 27012KT P6SM SCT012 OVC025
     FM050400 27006KT P6SM SCT012 BKN025=

USA.gov is the U.S. government's official web portal to all federal, state and local government web resources and services.